sensor_id;sensor_type;location;lat;lon;timestamp;pressure;altitude;pressure_sealevel;temperature;humidity
25130;BME280;13308;50.860;13.664;2023-04-01T05:55:26;95116.69;;;8.26;100.00
25130;BME280;13308;50.860;13.664;2023-04-01T05:57:51;95116.88;;;8.32;100.00
25130;BME280;13308;50.860;13.664;2023-04-01T06:00:17;95121.50;;;8.35;100.00
25130;BME280;13308;50.860;13.664;2023-04-01T06:02:44;95120.28;;;8.36;100.00
25130;BME280;13308;50.860;13.664;2023-04-01T06:05:16;95113.00;;;8.42;100.00
25130;BME280;13308;50.860;13.664;2023-04-01T06:07:42;95119.91;;;8.46;100.00
25130;BME280;13308;50.860;13.664;2023-04-01T06:10:16;95126.81;;;8.50;100.00
25130;BME280;13308;50.860;13.664;2023-04-01T06:13:00;95114.13;;;8.65;100.00
25130;BME280;13308;50.860;13.664;2023-04-01T06:15:36;95110.97;;;8.76;100.00
25130;BME280;13308;50.860;13.664;2023-04-01T06:18:18;95124.16;;;8.81;100.00
25130;BME280;13308;50.860;13.664;2023-04-01T06:21:11;95135.00;;;8.84;100.00
25130;BME280;13308;50.860;13.664;2023-04-01T06:24:19;95133.22;;;8.90;100.00
25130;BME280;13308;50.860;13.664;2023-04-01T06:27:09;95140.00;;;8.98;100.00
25130;BME280;13308;50.860;13.664;2023-04-01T06:32:22;95141.53;;;8.99;100.00
25130;BME280;13308;50.860;13.664;2023-04-01T06:34:58;95139.66;;;8.96;100.00
25130;BME280;13308;50.860;13.664;2023-04-01T06:40:51;95149.78;;;8.99;100.00
25130;BME280;13308;50.860;13.664;2023-04-01T06:43:53;95154.06;;;9.00;100.00
25130;BME280;13308;50.860;13.664;2023-04-01T06:46:58;95157.00;;;9.06;100.00
25130;BME280;13308;50.860;13.664;2023-04-01T06:53:15;95147.16;;;9.17;100.00
25130;BME280;13308;50.860;13.664;2023-04-01T06:56:13;95157.13;;;9.02;100.00
25130;BME280;13308;50.860;13.664;2023-04-01T06:59:17;95153.78;;;9.07;100.00
25130;BME280;13308;50.860;13.664;2023-04-01T07:01:53;95166.00;;;9.06;100.00
25130;BME280;13308;50.860;13.664;2023-04-01T07:04:32;95163.66;;;9.17;100.00
25130;BME280;13308;50.860;13.664;2023-04-01T07:07:38;95163.28;;;9.06;100.00
25130;BME280;13308;50.860;13.664;2023-04-01T07:10:28;95162.44;;;9.18;100.00
25130;BME280;13308;50.860;13.664;2023-04-01T07:16:17;95168.22;;;9.20;100.00
25130;BME280;13308;50.860;13.664;2023-04-01T07:18:56;95165.19;;;9.18;100.00
25130;BME280;13308;50.860;13.664;2023-04-01T07:21:47;95174.50;;;9.21;100.00
25130;BME280;13308;50.860;13.664;2023-04-01T07:24:25;95169.53;;;9.28;100.00
25130;BME280;13308;50.860;13.664;2023-04-01T07:27:01;95176.88;;;9.31;100.00
25130;BME280;13308;50.860;13.664;2023-04-01T07:29:30;95172.97;;;9.41;100.00
25130;BME280;13308;50.860;13.664;2023-04-01T07:34:51;95179.06;;;9.45;100.00
25130;BME280;13308;50.860;13.664;2023-04-01T07:45:26;95180.72;;;9.64;100.00
25130;BME280;13308;50.860;13.664;2023-04-01T07:48:06;95186.97;;;9.65;100.00
25130;BME280;13308;50.860;13.664;2023-04-01T07:50:41;95182.25;;;9.65;100.00
25130;BME280;13308;50.860;13.664;2023-04-01T07:56:05;95190.06;;;9.67;100.00
25130;BME280;13308;50.860;13.664;2023-04-01T08:02:19;95209.72;;;9.96;100.00
25130;BME280;13308;50.860;13.664;2023-04-01T08:05:06;95210.91;;;10.07;100.00
25130;BME280;13308;50.860;13.664;2023-04-01T08:10:50;95209.44;;;9.94;100.00
25130;BME280;13308;50.860;13.664;2023-04-01T08:14:02;95202.25;;;9.96;100.00
25130;BME280;13308;50.860;13.664;2023-04-01T08:17:20;95201.47;;;9.96;100.00
25130;BME280;13308;50.860;13.664;2023-04-01T08:20:00;95214.72;;;9.79;100.00
25130;BME280;13308;50.860;13.664;2023-04-01T08:22:38;95207.41;;;9.85;100.00
25130;BME280;13308;50.860;13.664;2023-04-01T08:25:17;95208.03;;;9.89;100.00
25130;BME280;13308;50.860;13.664;2023-04-01T08:27:49;95213.66;;;10.07;100.00
25130;BME280;13308;50.860;13.664;2023-04-01T08:33:19;95207.75;;;9.96;100.00
25130;BME280;13308;50.860;13.664;2023-04-01T08:36:05;95205.59;;;9.91;100.00
25130;BME280;13308;50.860;13.664;2023-04-01T08:38:44;95213.69;;;9.86;100.00
25130;BME280;13308;50.860;13.664;2023-04-01T08:41:44;95213.84;;;9.82;100.00
25130;BME280;13308;50.860;13.664;2023-04-01T08:44:53;95215.66;;;9.76;100.00
25130;BME280;13308;50.860;13.664;2023-04-01T08:47:52;95220.06;;;9.74;100.00
25130;BME280;13308;50.860;13.664;2023-04-01T08:58:54;95217.63;;;9.76;100.00
25130;BME280;13308;50.860;13.664;2023-04-01T09:05:03;95211.31;;;9.66;100.00
25130;BME280;13308;50.860;13.664;2023-04-01T09:08:06;95214.28;;;9.81;100.00
25130;BME280;13308;50.860;13.664;2023-04-01T09:11:04;95217.53;;;9.88;100.00
25130;BME280;13308;50.860;13.664;2023-04-01T09:14:15;95215.56;;;9.98;100.00
25130;BME280;13308;50.860;13.664;2023-04-01T09:19:53;95215.97;;;10.18;100.00
25130;BME280;13308;50.860;13.664;2023-04-01T09:22:48;95231.28;;;10.19;100.00
25130;BME280;13308;50.860;13.664;2023-04-01T09:28:13;95227.19;;;10.32;100.00
25130;BME280;13308;50.860;13.664;2023-04-01T09:31:21;95234.88;;;10.46;100.00
25130;BME280;13308;50.860;13.664;2023-04-01T09:34:28;95229.81;;;10.36;100.00
25130;BME280;13308;50.860;13.664;2023-04-01T09:37:08;95234.28;;;10.42;100.00
25130;BME280;13308;50.860;13.664;2023-04-01T09:40:08;95232.69;;;10.32;100.00
25130;BME280;13308;50.860;13.664;2023-04-01T09:42:42;95239.19;;;10.47;100.00
25130;BME280;13308;50.860;13.664;2023-04-01T09:48:31;95236.00;;;10.67;100.00
25130;BME280;13308;50.860;13.664;2023-04-01T09:51:17;95239.03;;;10.60;100.00
25130;BME280;13308;50.860;13.664;2023-04-01T09:54:01;95242.13;;;10.80;100.00
25130;BME280;13308;50.860;13.664;2023-04-01T10:02:35;95248.13;;;10.87;100.00
25130;BME280;13308;50.860;13.664;2023-04-01T10:07:51;95249.97;;;11.17;100.00
25130;BME280;13308;50.860;13.664;2023-04-01T10:13:00;95254.72;;;11.08;100.00
25130;BME280;13308;50.860;13.664;2023-04-01T10:15:57;95253.97;;;11.16;100.00
25130;BME280;13308;50.860;13.664;2023-04-01T10:18:57;95257.63;;;11.22;100.00
25130;BME280;13308;50.860;13.664;2023-04-01T10:21:57;95251.22;;;11.07;100.00
25130;BME280;13308;50.860;13.664;2023-04-01T10:24:42;95245.53;;;10.93;100.00
25130;BME280;13308;50.860;13.664;2023-04-01T10:27:23;95248.09;;;10.69;100.00
25130;BME280;13308;50.860;13.664;2023-04-01T10:30:33;95255.28;;;10.67;100.00
25130;BME280;13308;50.860;13.664;2023-04-01T10:36:16;95246.88;;;10.61;100.00
25130;BME280;13308;50.860;13.664;2023-04-01T10:42:09;95249.38;;;10.95;100.00
25130;BME280;13308;50.860;13.664;2023-04-01T10:45:17;95236.78;;;11.30;100.00
25130;BME280;13308;50.860;13.664;2023-04-01T10:48:15;95240.75;;;11.56;100.00
25130;BME280;13308;50.860;13.664;2023-04-01T10:51:11;95250.44;;;12.11;100.00
25130;BME280;13308;50.860;13.664;2023-04-01T10:54:21;95243.88;;;12.41;100.00
25130;BME280;13308;50.860;13.664;2023-04-01T11:05:02;95255.47;;;12.54;95.56
25130;BME280;13308;50.860;13.664;2023-04-01T11:08:02;95247.06;;;12.07;98.02
25130;BME280;13308;50.860;13.664;2023-04-01T11:11:03;95246.19;;;12.01;99.14
25130;BME280;13308;50.860;13.664;2023-04-01T11:14:18;95248.25;;;11.83;98.86
25130;BME280;13308;50.860;13.664;2023-04-01T11:17:26;95246.28;;;11.65;97.63
25130;BME280;13308;50.860;13.664;2023-04-01T11:26:00;95236.16;;;11.62;99.11
25130;BME280;13308;50.860;13.664;2023-04-01T11:29:04;95239.09;;;12.09;95.25
25130;BME280;13308;50.860;13.664;2023-04-01T11:37:25;95240.84;;;13.10;86.33
25130;BME280;13308;50.860;13.664;2023-04-01T11:43:43;95246.16;;;13.22;83.70
25130;BME280;13308;50.860;13.664;2023-04-01T11:46:35;95233.38;;;13.01;84.54
25130;BME280;13308;50.860;13.664;2023-04-01T11:49:13;95239.16;;;12.89;84.87
25130;BME280;13308;50.860;13.664;2023-04-01T11:52:18;95238.31;;;12.50;84.75
25130;BME280;13308;50.860;13.664;2023-04-01T11:55:05;95237.34;;;12.53;86.04
25130;BME280;13308;50.860;13.664;2023-04-01T11:57:57;95249.50;;;12.79;85.28
25130;BME280;13308;50.860;13.664;2023-04-01T12:00:32;95244.63;;;12.74;83.97
25130;BME280;13308;50.860;13.664;2023-04-01T12:03:36;95240.44;;;13.02;83.16
25130;BME280;13308;50.860;13.664;2023-04-01T12:09:44;95246.03;;;13.17;85.59
25130;BME280;13308;50.860;13.664;2023-04-01T12:12:24;95246.38;;;13.10;84.64
25130;BME280;13308;50.860;13.664;2023-04-01T12:15:17;95252.50;;;12.90;85.47
25130;BME280;13308;50.860;13.664;2023-04-01T12:17:53;95250.44;;;12.76;84.52
25130;BME280;13308;50.860;13.664;2023-04-01T12:20:33;95255.53;;;12.45;83.70
25130;BME280;13308;50.860;13.664;2023-04-01T12:31:22;95246.88;;;12.52;85.32
25130;BME280;13308;50.860;13.664;2023-04-01T12:37:08;95249.56;;;13.17;79.50
25130;BME280;13308;50.860;13.664;2023-04-01T12:39:48;95255.28;;;13.52;80.39
25130;BME280;13308;50.860;13.664;2023-04-01T12:45:32;95253.66;;;13.45;78.35
25130;BME280;13308;50.860;13.664;2023-04-01T12:48:27;95257.38;;;13.42;78.07
25130;BME280;13308;50.860;13.664;2023-04-01T12:51:16;95260.78;;;12.99;77.89
25130;BME280;13308;50.860;13.664;2023-04-01T12:54:13;95261.88;;;13.16;80.08
25130;BME280;13308;50.860;13.664;2023-04-01T12:57:09;95267.53;;;14.03;75.06
25130;BME280;13308;50.860;13.664;2023-04-01T13:00:04;95268.97;;;14.13;70.80
25130;BME280;13308;50.860;13.664;2023-04-01T13:05:43;95285.78;;;13.66;75.01
25130;BME280;13308;50.860;13.664;2023-04-01T13:11:13;95280.16;;;14.33;71.68
25130;BME280;13308;50.860;13.664;2023-04-01T13:13:48;95287.50;;;14.65;72.31
25130;BME280;13308;50.860;13.664;2023-04-01T13:16:27;95279.66;;;15.18;70.00
25130;BME280;13308;50.860;13.664;2023-04-01T13:21:49;95299.28;;;16.20;67.77
25130;BME280;13308;50.860;13.664;2023-04-01T13:24:27;95290.84;;;16.66;66.13
25130;BME280;13308;50.860;13.664;2023-04-01T13:27:12;95296.50;;;15.95;69.20
25130;BME280;13308;50.860;13.664;2023-04-01T13:29:54;95284.13;;;15.30;69.64
25130;BME280;13308;50.860;13.664;2023-04-01T13:35:45;95283.75;;;14.68;72.52
25130;BME280;13308;50.860;13.664;2023-04-01T13:44:00;95274.78;;;14.15;76.50
25130;BME280;13308;50.860;13.664;2023-04-01T13:49:48;95280.03;;;13.17;79.16
25130;BME280;13308;50.860;13.664;2023-04-01T13:55:41;95282.44;;;13.91;77.02
25130;BME280;13308;50.860;13.664;2023-04-01T13:58:53;95282.22;;;13.51;77.76
25130;BME280;13308;50.860;13.664;2023-04-01T14:04:49;95280.91;;;13.76;77.33
25130;BME280;13308;50.860;13.664;2023-04-01T14:09:59;95278.44;;;13.92;77.27
25130;BME280;13308;50.860;13.664;2023-04-01T14:15:29;95293.09;;;14.85;73.17
25130;BME280;13308;50.860;13.664;2023-04-01T14:26:17;95294.06;;;14.82;72.58
25130;BME280;13308;50.860;13.664;2023-04-01T14:29:02;95304.69;;;15.58;69.16
25130;BME280;13308;50.860;13.664;2023-04-01T14:31:43;95301.84;;;14.98;66.85
25130;BME280;13308;50.860;13.664;2023-04-01T14:37:15;95308.25;;;14.70;70.54
25130;BME280;13308;50.860;13.664;2023-04-01T14:43:14;95295.97;;;13.22;76.97
25130;BME280;13308;50.860;13.664;2023-04-01T14:48:50;95307.75;;;12.76;82.44
25130;BME280;13308;50.860;13.664;2023-04-01T14:51:36;95312.00;;;12.62;85.82
25130;BME280;13308;50.860;13.664;2023-04-01T14:54:19;95316.16;;;12.16;91.07
25130;BME280;13308;50.860;13.664;2023-04-01T14:57:13;95310.38;;;11.96;93.03
25130;BME280;13308;50.860;13.664;2023-04-01T14:59:51;95316.19;;;11.89;94.04
25130;BME280;13308;50.860;13.664;2023-04-01T15:04:58;95322.34;;;11.48;96.09
25130;BME280;13308;50.860;13.664;2023-04-01T15:13:20;95322.66;;;11.32;97.49
25130;BME280;13308;50.860;13.664;2023-04-01T15:18:48;95328.19;;;11.32;99.65
25130;BME280;13308;50.860;13.664;2023-04-01T15:24:10;95324.81;;;11.19;100.00
25130;BME280;13308;50.860;13.664;2023-04-01T15:29:49;95323.56;;;11.29;100.00
25130;BME280;13308;50.860;13.664;2023-04-01T15:32:38;95326.66;;;11.31;100.00
25130;BME280;13308;50.860;13.664;2023-04-01T15:38:31;95336.75;;;11.52;100.00
25130;BME280;13308;50.860;13.664;2023-04-01T15:41:16;95326.34;;;11.38;100.00
25130;BME280;13308;50.860;13.664;2023-04-01T15:46:30;95332.16;;;11.31;100.00
25130;BME280;13308;50.860;13.664;2023-04-01T15:49:28;95343.38;;;11.28;100.00
25130;BME280;13308;50.860;13.664;2023-04-01T15:52:23;95340.75;;;11.33;100.00
25130;BME280;13308;50.860;13.664;2023-04-01T15:55:14;95340.44;;;11.22;100.00
25130;BME280;13308;50.860;13.664;2023-04-01T16:00:30;95342.25;;;11.16;100.00
25130;BME280;13308;50.860;13.664;2023-04-01T16:03:34;95352.03;;;10.99;100.00
25130;BME280;13308;50.860;13.664;2023-04-01T16:06:36;95361.53;;;10.89;100.00
25130;BME280;13308;50.860;13.664;2023-04-01T16:09:15;95357.84;;;10.83;100.00
25130;BME280;13308;50.860;13.664;2023-04-01T16:11:56;95356.56;;;10.75;100.00
25130;BME280;13308;50.860;13.664;2023-04-01T16:17:36;95351.03;;;10.66;100.00
25130;BME280;13308;50.860;13.664;2023-04-01T16:20:20;95360.47;;;10.56;100.00
25130;BME280;13308;50.860;13.664;2023-04-01T16:22:57;95370.63;;;10.59;100.00
25130;BME280;13308;50.860;13.664;2023-04-01T16:25:37;95365.56;;;10.67;100.00
25130;BME280;13308;50.860;13.664;2023-04-01T16:28:30;95371.56;;;10.74;100.00
25130;BME280;13308;50.860;13.664;2023-04-01T16:31:13;95371.28;;;10.81;100.00
25130;BME280;13308;50.860;13.664;2023-04-01T16:33:47;95380.59;;;10.66;100.00
25130;BME280;13308;50.860;13.664;2023-04-01T16:36:32;95377.97;;;10.62;100.00
25130;BME280;13308;50.860;13.664;2023-04-01T16:44:45;95392.56;;;10.72;100.00
25130;BME280;13308;50.860;13.664;2023-04-01T16:47:17;95385.94;;;10.69;100.00
25130;BME280;13308;50.860;13.664;2023-04-01T16:53:09;95397.53;;;10.55;100.00
25130;BME280;13308;50.860;13.664;2023-04-01T16:55:55;95394.72;;;10.46;100.00
25130;BME280;13308;50.860;13.664;2023-04-01T16:58:37;95400.56;;;10.48;100.00
25130;BME280;13308;50.860;13.664;2023-04-01T17:01:12;95398.41;;;10.43;100.00
25130;BME280;13308;50.860;13.664;2023-04-01T17:03:46;95406.22;;;10.45;100.00
25130;BME280;13308;50.860;13.664;2023-04-01T17:06:24;95403.78;;;10.47;100.00
25130;BME280;13308;50.860;13.664;2023-04-01T17:09:01;95407.31;;;10.47;100.00
25130;BME280;13308;50.860;13.664;2023-04-01T17:11:39;95402.81;;;10.41;100.00
25130;BME280;13308;50.860;13.664;2023-04-01T17:14:20;95415.53;;;10.38;100.00
25130;BME280;13308;50.860;13.664;2023-04-01T17:17:11;95412.13;;;10.34;100.00
25130;BME280;13308;50.860;13.664;2023-04-01T17:23:00;95421.56;;;10.24;100.00
25130;BME280;13308;50.860;13.664;2023-04-01T17:25:37;95422.16;;;10.19;100.00
25130;BME280;13308;50.860;13.664;2023-04-01T17:28:34;95431.28;;;10.16;100.00
25130;BME280;13308;50.860;13.664;2023-04-01T17:31:26;95429.88;;;10.12;100.00
25130;BME280;13308;50.860;13.664;2023-04-01T17:34:16;95435.84;;;10.10;100.00
25130;BME280;13308;50.860;13.664;2023-04-01T17:36:59;95443.47;;;10.06;100.00
25130;BME280;13308;50.860;13.664;2023-04-01T17:42:22;95438.53;;;10.01;100.00
25130;BME280;13308;50.860;13.664;2023-04-01T17:45:01;95447.53;;;10.02;100.00
25130;BME280;13308;50.860;13.664;2023-04-01T17:47:49;95450.97;;;9.93;100.00
25130;BME280;13308;50.860;13.664;2023-04-01T17:50:30;95450.22;;;9.93;100.00
25130;BME280;13308;50.860;13.664;2023-04-01T17:53:17;95450.34;;;9.89;100.00
